Aviation Digital Data Service (ADDS)

Output produced by METARs form (1115 UTC 22 November 2017)
found at http://aviationweather.gov/adds/metars/
 
KBGR 220520Z 2206/2306 19008KT P6SM SCT200 
     FM221200 22006KT P6SM OVC050 
     FM221400 VRB03KT 3SM -RA BR OVC020 
     FM221600 VRB03KT 2SM RA BR OVC008 
     FM222100 36010KT 3SM -RA BR OVC005